sensor_id;sensor_type;location;lat;lon;timestamp;pressure;altitude;pressure_sealevel;temperature;humidity
53932;BME280;39844;52.496;13.482;2023-04-15T00:01:50;100362.34;;;8.72;100.00
53932;BME280;39844;52.496;13.482;2023-04-15T00:04:15;100352.72;;;8.71;100.00
53932;BME280;39844;52.496;13.482;2023-04-15T00:06:41;100353.63;;;8.71;100.00
53932;BME280;39844;52.496;13.482;2023-04-15T00:09:06;100343.13;;;8.70;100.00
53932;BME280;39844;52.496;13.482;2023-04-15T00:11:31;100341.38;;;8.70;100.00
53932;BME280;39844;52.496;13.482;2023-04-15T00:13:57;100341.41;;;8.69;100.00
53932;BME280;39844;52.496;13.482;2023-04-15T00:16:22;100344.91;;;8.69;100.00
53932;BME280;39844;52.496;13.482;2023-04-15T00:18:47;100343.16;;;8.68;100.00
53932;BME280;39844;52.496;13.482;2023-04-15T00:21:12;100345.75;;;8.68;100.00
53932;BME280;39844;52.496;13.482;2023-04-15T00:23:38;100346.63;;;8.69;100.00
53932;BME280;39844;52.496;13.482;2023-04-15T00:26:03;100334.41;;;8.68;100.00
53932;BME280;39844;52.496;13.482;2023-04-15T00:28:28;100338.78;;;8.67;100.00
53932;BME280;39844;52.496;13.482;2023-04-15T00:30:54;100346.63;;;8.69;100.00
53932;BME280;39844;52.496;13.482;2023-04-15T00:33:19;100343.16;;;8.68;100.00
53932;BME280;39844;52.496;13.482;2023-04-15T00:35:44;100341.41;;;8.69;100.00
53932;BME280;39844;52.496;13.482;2023-04-15T00:38:10;100337.91;;;8.68;100.00
53932;BME280;39844;52.496;13.482;2023-04-15T00:40:35;100344.03;;;8.69;100.00
53932;BME280;39844;52.496;13.482;2023-04-15T00:43:01;100339.66;;;8.69;100.00
53932;BME280;39844;52.496;13.482;2023-04-15T00:45:26;100341.41;;;8.69;100.00
53932;BME280;39844;52.496;13.482;2023-04-15T00:47:52;100346.63;;;8.69;100.00
53932;BME280;39844;52.496;13.482;2023-04-15T00:50:17;100341.41;;;8.69;100.00
53932;BME280;39844;52.496;13.482;2023-04-15T00:52:43;100337.03;;;8.68;100.00
53932;BME280;39844;52.496;13.482;2023-04-15T00:55:08;100336.16;;;8.67;100.00
53932;BME280;39844;52.496;13.482;2023-04-15T00:57:34;100330.94;;;8.67;100.00
53932;BME280;39844;52.496;13.482;2023-04-15T01:00:00;100333.53;;;8.67;100.00
53932;BME280;39844;52.496;13.482;2023-04-15T01:02:25;100332.69;;;8.67;100.00
53932;BME280;39844;52.496;13.482;2023-04-15T01:04:50;100329.19;;;8.68;100.00
53932;BME280;39844;52.496;13.482;2023-04-15T01:07:15;100335.28;;;8.68;100.00
53932;BME280;39844;52.496;13.482;2023-04-15T01:09:41;100325.69;;;8.67;100.00
53932;BME280;39844;52.496;13.482;2023-04-15T01:12:07;100323.09;;;8.69;100.00
53932;BME280;39844;52.496;13.482;2023-04-15T01:14:34;100323.06;;;8.67;100.00
53932;BME280;39844;52.496;13.482;2023-04-15T01:16:59;100316.97;;;8.68;100.00
53932;BME280;39844;52.496;13.482;2023-04-15T01:19:25;100320.47;;;8.69;100.00
53932;BME280;39844;52.496;13.482;2023-04-15T01:21:50;100319.59;;;8.68;100.00
53932;BME280;39844;52.496;13.482;2023-04-15T01:24:17;100316.97;;;8.68;100.00
53932;BME280;39844;52.496;13.482;2023-04-15T01:26:42;100314.38;;;8.68;100.00
53932;BME280;39844;52.496;13.482;2023-04-15T01:29:09;100310.88;;;8.68;100.00
53932;BME280;39844;52.496;13.482;2023-04-15T01:31:34;100317.84;;;8.67;100.00
53932;BME280;39844;52.496;13.482;2023-04-15T01:33:59;100317.84;;;8.67;100.00
53932;BME280;39844;52.496;13.482;2023-04-15T01:36:25;100318.72;;;8.68;100.00
53932;BME280;39844;52.496;13.482;2023-04-15T01:38:50;100321.34;;;8.68;100.00
53932;BME280;39844;52.496;13.482;2023-04-15T01:44:18;100314.38;;;8.68;100.00
53932;BME280;39844;52.496;13.482;2023-04-15T01:46:44;100310.88;;;8.68;100.00
53932;BME280;39844;52.496;13.482;2023-04-15T01:49:09;100312.63;;;8.67;100.00
53932;BME280;39844;52.496;13.482;2023-04-15T01:51:34;100308.25;;;8.68;100.00
53932;BME280;39844;52.496;13.482;2023-04-15T01:53:59;100314.38;;;8.68;100.00
53932;BME280;39844;52.496;13.482;2023-04-15T01:56:25;100311.75;;;8.68;100.00
53932;BME280;39844;52.496;13.482;2023-04-15T01:58:50;100309.13;;;8.68;100.00
53932;BME280;39844;52.496;13.482;2023-04-15T02:01:16;100307.38;;;8.67;100.00
53932;BME280;39844;52.496;13.482;2023-04-15T02:03:41;100307.38;;;8.67;100.00
53932;BME280;39844;52.496;13.482;2023-04-15T02:06:06;100309.13;;;8.68;100.00
53932;BME280;39844;52.496;13.482;2023-04-15T02:08:31;100310.00;;;8.69;100.00
53932;BME280;39844;52.496;13.482;2023-04-15T02:10:57;100308.28;;;8.69;100.00
53932;BME280;39844;52.496;13.482;2023-04-15T02:13:22;100310.88;;;8.69;100.00
53932;BME280;39844;52.496;13.482;2023-04-15T02:15:48;100304.78;;;8.69;100.00
53932;BME280;39844;52.496;13.482;2023-04-15T02:18:16;100305.66;;;8.69;100.00
53932;BME280;39844;52.496;13.482;2023-04-15T02:20:42;100301.28;;;8.70;100.00
53932;BME280;39844;52.496;13.482;2023-04-15T02:23:07;100306.50;;;8.70;100.00
53932;BME280;39844;52.496;13.482;2023-04-15T02:25:32;100305.66;;;8.69;100.00
53932;BME280;39844;52.496;13.482;2023-04-15T02:27:57;100305.66;;;8.69;100.00
53932;BME280;39844;52.496;13.482;2023-04-15T02:30:23;100302.16;;;8.70;100.00
53932;BME280;39844;52.496;13.482;2023-04-15T02:32:48;100306.50;;;8.70;100.00
53932;BME280;39844;52.496;13.482;2023-04-15T02:35:13;100303.03;;;8.71;100.00
53932;BME280;39844;52.496;13.482;2023-04-15T02:37:39;100310.00;;;8.72;100.00
53932;BME280;39844;52.496;13.482;2023-04-15T02:40:05;100307.38;;;8.73;100.00
53932;BME280;39844;52.496;13.482;2023-04-15T02:42:30;100293.44;;;8.74;100.00
53932;BME280;39844;52.496;13.482;2023-04-15T02:44:56;100304.75;;;8.75;100.00
53932;BME280;39844;52.496;13.482;2023-04-15T02:47:21;100307.38;;;8.76;100.00
53932;BME280;39844;52.496;13.482;2023-04-15T02:49:46;100306.47;;;8.77;100.00
53932;BME280;39844;52.496;13.482;2023-04-15T02:52:12;100310.84;;;8.78;100.00
53932;BME280;39844;52.496;13.482;2023-04-15T02:54:37;100306.50;;;8.79;100.00
53932;BME280;39844;52.496;13.482;2023-04-15T02:57:02;100306.50;;;8.79;100.00
53932;BME280;39844;52.496;13.482;2023-04-15T02:59:27;100314.31;;;8.80;100.00
53932;BME280;39844;52.496;13.482;2023-04-15T03:01:53;100314.31;;;8.80;100.00
53932;BME280;39844;52.496;13.482;2023-04-15T03:04:18;100312.56;;;8.82;100.00
53932;BME280;39844;52.496;13.482;2023-04-15T03:06:43;100316.06;;;8.83;100.00
53932;BME280;39844;52.496;13.482;2023-04-15T03:09:09;100314.31;;;8.83;100.00
53932;BME280;39844;52.496;13.482;2023-04-15T03:11:34;100316.91;;;8.85;100.00
53932;BME280;39844;52.496;13.482;2023-04-15T03:13:59;100311.69;;;8.85;100.00
53932;BME280;39844;52.496;13.482;2023-04-15T03:16:24;100314.31;;;8.86;100.00
53932;BME280;39844;52.496;13.482;2023-04-15T03:18:50;100309.97;;;8.87;100.00
53932;BME280;39844;52.496;13.482;2023-04-15T03:21:15;100313.41;;;8.87;100.00
53932;BME280;39844;52.496;13.482;2023-04-15T03:23:41;100316.91;;;8.89;100.00
53932;BME280;39844;52.496;13.482;2023-04-15T03:26:08;100312.53;;;8.90;100.00
53932;BME280;39844;52.496;13.482;2023-04-15T03:28:33;100313.41;;;8.90;100.00
53932;BME280;39844;52.496;13.482;2023-04-15T03:30:59;100324.72;;;8.93;100.00
53932;BME280;39844;52.496;13.482;2023-04-15T03:33:24;100321.25;;;8.94;100.00
53932;BME280;39844;52.496;13.482;2023-04-15T03:35:50;100312.53;;;8.95;100.00
53932;BME280;39844;52.496;13.482;2023-04-15T03:38:16;100313.38;;;8.95;100.00
53932;BME280;39844;52.496;13.482;2023-04-15T03:40:42;100315.13;;;8.96;100.00
53932;BME280;39844;52.496;13.482;2023-04-15T03:43:07;100321.25;;;8.97;100.00
53932;BME280;39844;52.496;13.482;2023-04-15T03:45:32;100307.25;;;8.98;100.00
53932;BME280;39844;52.496;13.482;2023-04-15T03:47:58;100309.03;;;8.99;100.00
53932;BME280;39844;52.496;13.482;2023-04-15T03:50:23;100309.03;;;8.99;100.00
53932;BME280;39844;52.496;13.482;2023-04-15T03:52:48;100309.00;;;9.02;100.00
53932;BME280;39844;52.496;13.482;2023-04-15T03:55:14;100315.97;;;9.03;100.00
53932;BME280;39844;52.496;13.482;2023-04-15T03:57:40;100316.84;;;9.03;100.00
53932;BME280;39844;52.496;13.482;2023-04-15T04:00:06;100310.72;;;9.06;100.00
53932;BME280;39844;52.496;13.482;2023-04-15T04:02:32;100322.94;;;9.07;100.00
53932;BME280;39844;52.496;13.482;2023-04-15T04:04:57;100323.81;;;9.09;100.00
53932;BME280;39844;52.496;13.482;2023-04-15T04:07:23;100321.19;;;9.09;100.00
53932;BME280;39844;52.496;13.482;2023-04-15T04:09:48;100322.06;;;9.09;100.00
53932;BME280;39844;52.496;13.482;2023-04-15T04:12:14;100324.66;;;9.11;100.00
53932;BME280;39844;52.496;13.482;2023-04-15T04:14:39;100317.69;;;9.11;100.00
53932;BME280;39844;52.496;13.482;2023-04-15T04:17:05;100322.91;;;9.13;100.00
53932;BME280;39844;52.496;13.482;2023-04-15T04:19:30;100322.03;;;9.14;100.00
53932;BME280;39844;52.496;13.482;2023-04-15T04:21:55;100325.50;;;9.16;100.00
53932;BME280;39844;52.496;13.482;2023-04-15T04:24:21;100323.78;;;9.16;100.00
53932;BME280;39844;52.496;13.482;2023-04-15T04:26:46;100324.66;;;9.17;100.00
53932;BME280;39844;52.496;13.482;2023-04-15T04:29:12;100328.13;;;9.19;100.00
53932;BME280;39844;52.496;13.482;2023-04-15T04:31:37;100329.88;;;9.20;100.00
53932;BME280;39844;52.496;13.482;2023-04-15T04:34:02;100324.63;;;9.20;100.00
53932;BME280;39844;52.496;13.482;2023-04-15T04:36:28;100319.41;;;9.23;100.00
53932;BME280;39844;52.496;13.482;2023-04-15T04:38:53;100333.34;;;9.25;100.00
53932;BME280;39844;52.496;13.482;2023-04-15T04:41:18;100335.94;;;9.26;100.00
53932;BME280;39844;52.496;13.482;2023-04-15T04:43:43;100326.31;;;9.28;100.00
53932;BME280;39844;52.496;13.482;2023-04-15T04:46:09;100333.28;;;9.31;100.00
53932;BME280;39844;52.496;13.482;2023-04-15T04:48:34;100333.28;;;9.34;100.00
53932;BME280;39844;52.496;13.482;2023-04-15T04:50:59;100335.03;;;9.35;100.00
53932;BME280;39844;52.496;13.482;2023-04-15T04:53:25;100338.50;;;9.37;100.00
53932;BME280;39844;52.496;13.482;2023-04-15T04:55:50;100340.25;;;9.38;100.00
53932;BME280;39844;52.496;13.482;2023-04-15T04:58:15;100335.03;;;9.38;100.00
53932;BME280;39844;52.496;13.482;2023-04-15T05:00:40;100342.88;;;9.39;100.00
53932;BME280;39844;52.496;13.482;2023-04-15T05:03:06;100347.22;;;9.39;100.00
53932;BME280;39844;52.496;13.482;2023-04-15T05:05:31;100345.47;;;9.41;100.00
53932;BME280;39844;52.496;13.482;2023-04-15T05:07:56;100355.94;;;9.41;100.00
53932;BME280;39844;52.496;13.482;2023-04-15T05:10:22;100355.06;;;9.42;100.00
53932;BME280;39844;52.496;13.482;2023-04-15T05:12:47;100354.22;;;9.43;100.00
53932;BME280;39844;52.496;13.482;2023-04-15T05:15:12;100355.91;;;9.47;100.00
53932;BME280;39844;52.496;13.482;2023-04-15T05:17:37;100357.66;;;9.48;100.00
53932;BME280;39844;52.496;13.482;2023-04-15T05:20:03;100360.28;;;9.49;100.00
53932;BME280;39844;52.496;13.482;2023-04-15T05:22:28;100356.78;;;9.50;100.00
53932;BME280;39844;52.496;13.482;2023-04-15T05:24:54;100355.91;;;9.53;100.00
53932;BME280;39844;52.496;13.482;2023-04-15T05:27:19;100365.50;;;9.56;100.00
53932;BME280;39844;52.496;13.482;2023-04-15T05:29:45;100366.34;;;9.56;100.00
53932;BME280;39844;52.496;13.482;2023-04-15T05:32:10;100369.84;;;9.57;100.00
53932;BME280;39844;52.496;13.482;2023-04-15T05:34:35;100372.44;;;9.60;100.00
53932;BME280;39844;52.496;13.482;2023-04-15T05:37:03;100369.78;;;9.61;100.00
53932;BME280;39844;52.496;13.482;2023-04-15T05:39:28;100370.69;;;9.63;100.00
53932;BME280;39844;52.496;13.482;2023-04-15T05:41:53;100370.66;;;9.65;100.00
53932;BME280;39844;52.496;13.482;2023-04-15T05:44:18;100371.53;;;9.68;100.00
53932;BME280;39844;52.496;13.482;2023-04-15T05:46:44;100372.38;;;9.70;100.00
53932;BME280;39844;52.496;13.482;2023-04-15T05:49:09;100364.50;;;9.70;100.00
53932;BME280;39844;52.496;13.482;2023-04-15T05:51:34;100367.13;;;9.73;100.00
53932;BME280;39844;52.496;13.482;2023-04-15T05:54:00;100365.34;;;9.77;100.00
53932;BME280;39844;52.496;13.482;2023-04-15T05:56:25;100364.44;;;9.81;100.00
53932;BME280;39844;52.496;13.482;2023-04-15T05:58:51;100370.53;;;9.84;100.00
53932;BME280;39844;52.496;13.482;2023-04-15T06:01:16;100357.44;;;9.86;100.00
53932;BME280;39844;52.496;13.482;2023-04-15T06:03:41;100373.13;;;9.90;100.00
53932;BME280;39844;52.496;13.482;2023-04-15T06:06:07;100374.81;;;9.94;100.00
53932;BME280;39844;52.496;13.482;2023-04-15T06:08:32;100362.59;;;9.96;100.00
53932;BME280;39844;52.496;13.482;2023-04-15T06:10:57;100366.94;;;9.99;100.00
53932;BME280;39844;52.496;13.482;2023-04-15T06:13:23;100373.03;;;10.02;100.00
53932;BME280;39844;52.496;13.482;2023-04-15T06:15:48;100363.38;;;10.04;100.00
53932;BME280;39844;52.496;13.482;2023-04-15T06:18:16;100366.00;;;10.07;100.00
53932;BME280;39844;52.496;13.482;2023-04-15T06:20:41;100369.47;;;10.09;100.00
53932;BME280;39844;52.496;13.482;2023-04-15T06:23:06;100358.13;;;10.12;100.00
53932;BME280;39844;52.496;13.482;2023-04-15T06:25:31;100364.22;;;10.15;99.71
53932;BME280;39844;52.496;13.482;2023-04-15T06:27:57;100378.16;;;10.21;100.00
53932;BME280;39844;52.496;13.482;2023-04-15T06:30:22;100370.28;;;10.24;99.49
53932;BME280;39844;52.496;13.482;2023-04-15T06:32:47;100374.59;;;10.28;100.00
53932;BME280;39844;52.496;13.482;2023-04-15T06:35:13;100365.84;;;10.32;99.21
53932;BME280;39844;52.496;13.482;2023-04-15T06:37:38;100373.66;;;10.36;99.46
53932;BME280;39844;52.496;13.482;2023-04-15T06:40:04;100381.47;;;10.41;99.30
53932;BME280;39844;52.496;13.482;2023-04-15T06:42:29;100378.00;;;10.42;98.66
53932;BME280;39844;52.496;13.482;2023-04-15T06:44:55;100384.09;;;10.44;98.13
53932;BME280;39844;52.496;13.482;2023-04-15T06:47:20;100393.66;;;10.48;97.42
53932;BME280;39844;52.496;13.482;2023-04-15T06:49:45;100390.16;;;10.52;98.15
53932;BME280;39844;52.496;13.482;2023-04-15T06:52:11;100389.22;;;10.57;97.24
53932;BME280;39844;52.496;13.482;2023-04-15T06:54:36;100396.19;;;10.60;96.18
53932;BME280;39844;52.496;13.482;2023-04-15T06:57:01;100398.78;;;10.63;95.28
53932;BME280;39844;52.496;13.482;2023-04-15T06:59:27;100405.78;;;10.64;94.90
53932;BME280;39844;52.496;13.482;2023-04-15T07:01:52;100411.81;;;10.70;95.50
53932;BME280;39844;52.496;13.482;2023-04-15T07:04:17;100407.41;;;10.74;95.64
53932;BME280;39844;52.496;13.482;2023-04-15T07:06:43;100403.94;;;10.75;93.92
53932;BME280;39844;52.496;13.482;2023-04-15T07:09:10;100406.53;;;10.75;94.41
53932;BME280;39844;52.496;13.482;2023-04-15T07:11:35;100419.69;;;10.75;94.52
53932;BME280;39844;52.496;13.482;2023-04-15T07:14:01;100412.66;;;10.77;94.06
53932;BME280;39844;52.496;13.482;2023-04-15T07:16:29;100420.50;;;10.78;93.75
53932;BME280;39844;52.496;13.482;2023-04-15T07:18:55;100421.31;;;10.84;94.56
53932;BME280;39844;52.496;13.482;2023-04-15T07:21:23;100423.91;;;10.87;94.17
53932;BME280;39844;52.496;13.482;2023-04-15T07:23:48;100422.16;;;10.87;94.01
53932;BME280;39844;52.496;13.482;2023-04-15T07:26:13;100423.91;;;10.87;92.85
53932;BME280;39844;52.496;13.482;2023-04-15T07:28:39;100428.28;;;10.86;93.38
53932;BME280;39844;52.496;13.482;2023-04-15T07:31:04;100431.81;;;10.85;93.33
53932;BME280;39844;52.496;13.482;2023-04-15T07:33:29;100432.66;;;10.87;95.46
53932;BME280;39844;52.496;13.482;2023-04-15T07:35:55;100429.13;;;10.91;95.21
53932;BME280;39844;52.496;13.482;2023-04-15T07:38:21;100441.44;;;10.88;93.72
53932;BME280;39844;52.496;13.482;2023-04-15T07:40:46;100437.06;;;10.85;93.85
53932;BME280;39844;52.496;13.482;2023-04-15T07:43:11;100449.31;;;10.83;94.87
53932;BME280;39844;52.496;13.482;2023-04-15T07:45:37;100447.66;;;10.76;93.89
53932;BME280;39844;52.496;13.482;2023-04-15T07:48:03;100445.06;;;10.71;93.70
53932;BME280;39844;52.496;13.482;2023-04-15T07:50:28;100444.22;;;10.68;94.39
53932;BME280;39844;52.496;13.482;2023-04-15T07:52:53;100447.75;;;10.67;94.03
53932;BME280;39844;52.496;13.482;2023-04-15T07:55:19;100440.75;;;10.63;94.57
53932;BME280;39844;52.496;13.482;2023-04-15T07:57:44;100440.75;;;10.63;95.05
53932;BME280;39844;52.496;13.482;2023-04-15T08:00:10;100442.56;;;10.58;94.77
53932;BME280;39844;52.496;13.482;2023-04-15T08:02:35;100445.22;;;10.55;94.50
53932;BME280;39844;52.496;13.482;2023-04-15T08:05:01;100453.09;;;10.55;94.73
53932;BME280;39844;52.496;13.482;2023-04-15T08:07:26;100453.13;;;10.52;94.02
53932;BME280;39844;52.496;13.482;2023-04-15T08:09:51;100457.47;;;10.53;95.01
53932;BME280;39844;52.496;13.482;2023-04-15T08:12:17;100449.66;;;10.50;94.07
53932;BME280;39844;52.496;13.482;2023-04-15T08:14:42;100460.16;;;10.50;95.65
53932;BME280;39844;52.496;13.482;2023-04-15T08:17:07;100457.53;;;10.47;95.38
53932;BME280;39844;52.496;13.482;2023-04-15T08:19:33;100464.53;;;10.46;96.22
53932;BME280;39844;52.496;13.482;2023-04-15T08:21:58;100465.44;;;10.44;96.72
53932;BME280;39844;52.496;13.482;2023-04-15T08:24:23;100462.78;;;10.45;96.73
53932;BME280;39844;52.496;13.482;2023-04-15T08:26:49;100464.56;;;10.43;96.83
53932;BME280;39844;52.496;13.482;2023-04-15T08:29:14;100465.41;;;10.45;96.88
53932;BME280;39844;52.496;13.482;2023-04-15T08:31:39;100467.13;;;10.48;97.33
53932;BME280;39844;52.496;13.482;2023-04-15T08:34:05;100464.50;;;10.51;97.00
53932;BME280;39844;52.496;13.482;2023-04-15T08:36:30;100474.97;;;10.54;97.09
53932;BME280;39844;52.496;13.482;2023-04-15T08:38:55;100479.28;;;10.58;96.95
53932;BME280;39844;52.496;13.482;2023-04-15T08:41:22;100474.94;;;10.57;96.07
53932;BME280;39844;52.496;13.482;2023-04-15T08:44:01;100471.44;;;10.56;96.54
53932;BME280;39844;52.496;13.482;2023-04-15T08:46:29;100476.72;;;10.53;96.38
53932;BME280;39844;52.496;13.482;2023-04-15T08:48:56;100480.25;;;10.52;97.43
53932;BME280;39844;52.496;13.482;2023-04-15T08:51:21;100481.09;;;10.53;97.69
53932;BME280;39844;52.496;13.482;2023-04-15T08:53:48;100479.38;;;10.52;98.19
53932;BME280;39844;52.496;13.482;2023-04-15T08:56:14;100478.50;;;10.51;97.75
53932;BME280;39844;52.496;13.482;2023-04-15T08:58:40;100475.00;;;10.52;97.82
53932;BME280;39844;52.496;13.482;2023-04-15T09:01:05;100487.22;;;10.55;98.37
53932;BME280;39844;52.496;13.482;2023-04-15T09:03:31;100480.16;;;10.61;99.45
53932;BME280;39844;52.496;13.482;2023-04-15T09:05:58;100478.38;;;10.66;98.78
53932;BME280;39844;52.496;13.482;2023-04-15T09:08:23;100489.72;;;10.70;98.89
53932;BME280;39844;52.496;13.482;2023-04-15T09:10:48;100481.78;;;10.73;97.76
53932;BME280;39844;52.496;13.482;2023-04-15T09:13:14;100487.94;;;10.75;97.88
53932;BME280;39844;52.496;13.482;2023-04-15T09:15:39;100491.38;;;10.80;98.80
53932;BME280;39844;52.496;13.482;2023-04-15T09:18:07;100495.72;;;10.84;99.00
53932;BME280;39844;52.496;13.482;2023-04-15T09:20:39;100486.03;;;10.91;99.11
53932;BME280;39844;52.496;13.482;2023-04-15T09:23:14;100490.34;;;10.96;99.22
53932;BME280;39844;52.496;13.482;2023-04-15T09:25:40;100491.22;;;10.98;97.95
53932;BME280;39844;52.496;13.482;2023-04-15T09:28:05;100496.41;;;11.01;98.60
53932;BME280;39844;52.496;13.482;2023-04-15T09:30:32;100498.16;;;11.04;98.50
53932;BME280;39844;52.496;13.482;2023-04-15T09:32:59;100510.44;;;11.03;96.98
53932;BME280;39844;52.496;13.482;2023-04-15T09:35:25;100506.06;;;10.99;96.27
53932;BME280;39844;52.496;13.482;2023-04-15T09:37:51;100512.22;;;10.98;96.93
53932;BME280;39844;52.496;13.482;2023-04-15T09:40:33;100511.38;;;10.95;97.80
53932;BME280;39844;52.496;13.482;2023-04-15T09:42:59;100521.00;;;10.94;97.29
53932;BME280;39844;52.496;13.482;2023-04-15T09:45:24;100517.56;;;10.91;97.16
53932;BME280;39844;52.496;13.482;2023-04-15T09:47:50;100520.19;;;10.88;97.23
53932;BME280;39844;52.496;13.482;2023-04-15T09:50:16;100518.47;;;10.85;98.07
53932;BME280;39844;52.496;13.482;2023-04-15T09:52:41;100521.94;;;10.87;99.52
53932;BME280;39844;52.496;13.482;2023-04-15T09:55:07;100514.97;;;10.85;99.16
53932;BME280;39844;52.496;13.482;2023-04-15T09:57:34;100519.34;;;10.81;98.95
53932;BME280;39844;52.496;13.482;2023-04-15T10:00:00;100529.88;;;10.78;98.53
53932;BME280;39844;52.496;13.482;2023-04-15T10:02:26;100530.78;;;10.75;99.17
53932;BME280;39844;52.496;13.482;2023-04-15T10:04:52;100535.19;;;10.75;99.82
53932;BME280;39844;52.496;13.482;2023-04-15T10:07:19;100533.44;;;10.74;100.00
53932;BME280;39844;52.496;13.482;2023-04-15T10:09:45;100538.69;;;10.71;99.97
53932;BME280;39844;52.496;13.482;2023-04-15T10:12:11;100533.47;;;10.69;100.00
53932;BME280;39844;52.496;13.482;2023-04-15T10:14:40;100536.06;;;10.71;100.00
53932;BME280;39844;52.496;13.482;2023-04-15T10:17:06;100539.56;;;10.74;100.00
53932;BME280;39844;52.496;13.482;2023-04-15T10:19:36;100538.66;;;10.80;100.00
53932;BME280;39844;52.496;13.482;2023-04-15T10:22:02;100548.25;;;10.83;100.00
53932;BME280;39844;52.496;13.482;2023-04-15T10:24:30;100550.84;;;10.84;100.00
53932;BME280;39844;52.496;13.482;2023-04-15T10:26:55;100549.94;;;10.87;100.00
53932;BME280;39844;52.496;13.482;2023-04-15T10:29:23;100543.81;;;10.89;100.00
53932;BME280;39844;52.496;13.482;2023-04-15T10:31:49;100542.00;;;10.94;100.00
53932;BME280;39844;52.496;13.482;2023-04-15T10:34:15;100547.22;;;11.00;100.00
53932;BME280;39844;52.496;13.482;2023-04-15T10:36:40;100540.16;;;11.08;100.00
53932;BME280;39844;52.496;13.482;2023-04-15T10:42:17;100549.72;;;11.14;100.00
53932;BME280;39844;52.496;13.482;2023-04-15T10:44:45;100554.06;;;11.16;100.00
53932;BME280;39844;52.496;13.482;2023-04-15T10:47:16;100553.22;;;11.16;100.00
53932;BME280;39844;52.496;13.482;2023-04-15T10:49:50;100553.16;;;11.19;100.00
53932;BME280;39844;52.496;13.482;2023-04-15T10:52:17;100555.78;;;11.20;100.00
53932;BME280;39844;52.496;13.482;2023-04-15T10:54:43;100559.31;;;11.18;100.00
53932;BME280;39844;52.496;13.482;2023-04-15T10:59:59;100555.78;;;11.19;100.00
53932;BME280;39844;52.496;13.482;2023-04-15T11:02:45;100561.06;;;11.17;100.00
53932;BME280;39844;52.496;13.482;2023-04-15T11:05:12;100561.94;;;11.16;100.00
53932;BME280;39844;52.496;13.482;2023-04-15T11:12:51;100572.59;;;11.03;100.00
53932;BME280;39844;52.496;13.482;2023-04-15T11:17:53;100573.50;;;11.00;100.00
53932;BME280;39844;52.496;13.482;2023-04-15T11:20:18;100578.75;;;10.97;100.00
53932;BME280;39844;52.496;13.482;2023-04-15T11:22:51;100576.09;;;10.99;100.00
53932;BME280;39844;52.496;13.482;2023-04-15T11:25:26;100580.50;;;10.98;100.00
53932;BME280;39844;52.496;13.482;2023-04-15T11:27:52;100580.50;;;10.98;100.00
53932;BME280;39844;52.496;13.482;2023-04-15T11:30:20;100585.78;;;10.98;100.00
53932;BME280;39844;52.496;13.482;2023-04-15T11:32:45;100592.75;;;10.96;100.00
53932;BME280;39844;52.496;13.482;2023-04-15T11:35:10;100597.16;;;10.97;100.00
53932;BME280;39844;52.496;13.482;2023-04-15T11:37:36;100594.53;;;10.97;100.00
53932;BME280;39844;52.496;13.482;2023-04-15T11:40:02;100599.75;;;10.99;100.00
53932;BME280;39844;52.496;13.482;2023-04-15T11:42:27;100601.53;;;10.98;100.00
53932;BME280;39844;52.496;13.482;2023-04-15T11:45:14;100605.88;;;11.01;100.00
53932;BME280;39844;52.496;13.482;2023-04-15T11:47:40;100604.09;;;11.06;100.00
53932;BME280;39844;52.496;13.482;2023-04-15T11:50:17;100609.28;;;11.09;100.00
53932;BME280;39844;52.496;13.482;2023-04-15T11:52:59;100610.16;;;11.09;100.00
53932;BME280;39844;52.496;13.482;2023-04-15T11:55:25;100614.53;;;11.09;100.00
53932;BME280;39844;52.496;13.482;2023-04-15T11:58:10;100620.69;;;11.06;100.00
53932;BME280;39844;52.496;13.482;2023-04-15T12:00:37;100618.06;;;11.06;100.00
53932;BME280;39844;52.496;13.482;2023-04-15T12:06:22;100618.06;;;11.06;100.00
53932;BME280;39844;52.496;13.482;2023-04-15T12:09:04;100630.31;;;11.09;100.00
53932;BME280;39844;52.496;13.482;2023-04-15T12:11:55;100627.66;;;11.13;100.00
53932;BME280;39844;52.496;13.482;2023-04-15T12:14:33;100621.53;;;11.13;100.00
53932;BME280;39844;52.496;13.482;2023-04-15T12:17:01;100626.78;;;11.14;100.00
53932;BME280;39844;52.496;13.482;2023-04-15T12:19:38;100629.38;;;11.17;100.00
53932;BME280;39844;52.496;13.482;2023-04-15T12:22:08;100634.56;;;11.25;100.00
53932;BME280;39844;52.496;13.482;2023-04-15T12:24:34;100632.75;;;11.33;100.00
53932;BME280;39844;52.496;13.482;2023-04-15T12:27:04;100638.81;;;11.41;100.00
53932;BME280;39844;52.496;13.482;2023-04-15T12:29:30;100636.13;;;11.49;100.00
53932;BME280;39844;52.496;13.482;2023-04-15T12:32:07;100638.75;;;11.49;100.00
53932;BME280;39844;52.496;13.482;2023-04-15T12:34:34;100637.78;;;11.59;100.00
53932;BME280;39844;52.496;13.482;2023-04-15T12:37:02;100650.91;;;11.60;100.00
53932;BME280;39844;52.496;13.482;2023-04-15T12:39:34;100650.94;;;11.59;100.00
53932;BME280;39844;52.496;13.482;2023-04-15T12:42:00;100647.41;;;11.61;100.00
53932;BME280;39844;52.496;13.482;2023-04-15T12:44:26;100652.63;;;11.64;100.00
53932;BME280;39844;52.496;13.482;2023-04-15T12:46:51;100658.69;;;11.72;100.00
53932;BME280;39844;52.496;13.482;2023-04-15T12:49:17;100652.53;;;11.76;100.00
53932;BME280;39844;52.496;13.482;2023-04-15T12:51:43;100660.44;;;11.75;100.00
53932;BME280;39844;52.496;13.482;2023-04-15T12:54:08;100655.22;;;11.72;100.00